sensor_id;sensor_type;location;lat;lon;timestamp;temperature;humidity
6443;DHT22;3254;47.372;8.512;2023-03-26T00:00:09;8.70;1.00
6443;DHT22;3254;47.372;8.512;2023-03-26T00:02:36;8.70;1.00
6443;DHT22;3254;47.372;8.512;2023-03-26T00:05:05;8.60;1.00
6443;DHT22;3254;47.372;8.512;2023-03-26T00:07:30;8.70;1.00
6443;DHT22;3254;47.372;8.512;2023-03-26T00:09:56;8.70;1.00
6443;DHT22;3254;47.372;8.512;2023-03-26T00:12:23;8.60;1.00
6443;DHT22;3254;47.372;8.512;2023-03-26T00:14:49;8.70;1.00
6443;DHT22;3254;47.372;8.512;2023-03-26T00:17:16;8.70;1.00
6443;DHT22;3254;47.372;8.512;2023-03-26T00:19:41;8.70;1.00
6443;DHT22;3254;47.372;8.512;2023-03-26T00:22:07;8.70;1.00
6443;DHT22;3254;47.372;8.512;2023-03-26T00:24:35;8.70;1.00
6443;DHT22;3254;47.372;8.512;2023-03-26T00:27:01;8.60;1.00
6443;DHT22;3254;47.372;8.512;2023-03-26T00:29:27;8.60;1.00
6443;DHT22;3254;47.372;8.512;2023-03-26T00:31:53;8.60;1.00
6443;DHT22;3254;47.372;8.512;2023-03-26T00:34:18;8.60;1.00
6443;DHT22;3254;47.372;8.512;2023-03-26T00:36:45;8.60;1.00
6443;DHT22;3254;47.372;8.512;2023-03-26T00:39:11;8.60;1.00
6443;DHT22;3254;47.372;8.512;2023-03-26T00:41:37;8.50;1.00
6443;DHT22;3254;47.372;8.512;2023-03-26T00:44:07;8.40;1.00
6443;DHT22;3254;47.372;8.512;2023-03-26T00:46:33;8.40;1.00
6443;DHT22;3254;47.372;8.512;2023-03-26T00:48:59;8.40;1.00
6443;DHT22;3254;47.372;8.512;2023-03-26T00:51:26;8.30;1.00
6443;DHT22;3254;47.372;8.512;2023-03-26T00:53:52;8.30;1.00
6443;DHT22;3254;47.372;8.512;2023-03-26T00:56:18;8.30;1.00
6443;DHT22;3254;47.372;8.512;2023-03-26T00:58:44;8.30;1.00
6443;DHT22;3254;47.372;8.512;2023-03-26T01:01:14;8.20;1.00
6443;DHT22;3254;47.372;8.512;2023-03-26T01:03:42;8.20;1.00
6443;DHT22;3254;47.372;8.512;2023-03-26T01:06:28;8.20;1.00
6443;DHT22;3254;47.372;8.512;2023-03-26T01:09:13;8.20;1.00
6443;DHT22;3254;47.372;8.512;2023-03-26T01:11:40;8.20;1.00
6443;DHT22;3254;47.372;8.512;2023-03-26T01:14:10;8.20;1.00
6443;DHT22;3254;47.372;8.512;2023-03-26T01:16:55;8.10;1.00
6443;DHT22;3254;47.372;8.512;2023-03-26T01:22:04;8.00;1.00
6443;DHT22;3254;47.372;8.512;2023-03-26T01:24:30;7.90;1.00
6443;DHT22;3254;47.372;8.512;2023-03-26T01:27:07;8.00;1.00
6443;DHT22;3254;47.372;8.512;2023-03-26T01:29:52;8.00;1.00
6443;DHT22;3254;47.372;8.512;2023-03-26T01:35:31;7.90;1.00
6443;DHT22;3254;47.372;8.512;2023-03-26T01:41:05;7.90;1.00
6443;DHT22;3254;47.372;8.512;2023-03-26T01:43:51;7.80;1.00
6443;DHT22;3254;47.372;8.512;2023-03-26T01:46:20;7.80;1.00
6443;DHT22;3254;47.372;8.512;2023-03-26T01:48:47;7.80;1.00
6443;DHT22;3254;47.372;8.512;2023-03-26T01:51:23;7.80;1.00
6443;DHT22;3254;47.372;8.512;2023-03-26T01:53:50;7.80;1.00
6443;DHT22;3254;47.372;8.512;2023-03-26T01:56:43;7.80;1.00
6443;DHT22;3254;47.372;8.512;2023-03-26T02:02:10;7.70;1.00
6443;DHT22;3254;47.372;8.512;2023-03-26T02:07:25;7.60;1.00
6443;DHT22;3254;47.372;8.512;2023-03-26T02:09:59;7.60;1.00
6443;DHT22;3254;47.372;8.512;2023-03-26T02:12:27;7.70;1.00
6443;DHT22;3254;47.372;8.512;2023-03-26T02:14:53;7.70;1.00
6443;DHT22;3254;47.372;8.512;2023-03-26T02:17:19;7.70;1.00
6443;DHT22;3254;47.372;8.512;2023-03-26T02:19:48;7.60;1.00
6443;DHT22;3254;47.372;8.512;2023-03-26T02:22:14;7.60;1.00
6443;DHT22;3254;47.372;8.512;2023-03-26T02:24:43;7.60;1.00
6443;DHT22;3254;47.372;8.512;2023-03-26T02:27:09;7.60;1.00
6443;DHT22;3254;47.372;8.512;2023-03-26T02:29:36;7.50;1.00
6443;DHT22;3254;47.372;8.512;2023-03-26T02:32:08;7.50;1.00
6443;DHT22;3254;47.372;8.512;2023-03-26T02:34:40;7.50;1.00
6443;DHT22;3254;47.372;8.512;2023-03-26T02:37:06;7.60;1.00
6443;DHT22;3254;47.372;8.512;2023-03-26T02:39:32;7.60;1.00
6443;DHT22;3254;47.372;8.512;2023-03-26T02:41:58;7.60;1.00
6443;DHT22;3254;47.372;8.512;2023-03-26T02:44:23;7.60;1.00
6443;DHT22;3254;47.372;8.512;2023-03-26T02:46:49;7.50;1.00
6443;DHT22;3254;47.372;8.512;2023-03-26T02:49:15;7.50;1.00
6443;DHT22;3254;47.372;8.512;2023-03-26T02:51:41;7.50;1.00
6443;DHT22;3254;47.372;8.512;2023-03-26T02:54:06;7.50;1.00
6443;DHT22;3254;47.372;8.512;2023-03-26T02:56:32;7.50;1.00
6443;DHT22;3254;47.372;8.512;2023-03-26T02:58:57;7.50;1.00
6443;DHT22;3254;47.372;8.512;2023-03-26T03:01:23;7.50;1.00
6443;DHT22;3254;47.372;8.512;2023-03-26T03:03:49;7.50;1.00
6443;DHT22;3254;47.372;8.512;2023-03-26T03:06:15;7.40;1.00
6443;DHT22;3254;47.372;8.512;2023-03-26T03:08:43;7.40;1.00
6443;DHT22;3254;47.372;8.512;2023-03-26T03:11:16;7.40;1.00
6443;DHT22;3254;47.372;8.512;2023-03-26T03:13:43;7.30;1.00
6443;DHT22;3254;47.372;8.512;2023-03-26T03:16:09;7.30;1.00
6443;DHT22;3254;47.372;8.512;2023-03-26T03:18:35;7.20;1.00
6443;DHT22;3254;47.372;8.512;2023-03-26T03:21:01;7.20;1.00
6443;DHT22;3254;47.372;8.512;2023-03-26T03:23:27;7.20;1.00
6443;DHT22;3254;47.372;8.512;2023-03-26T03:25:53;7.20;1.00
6443;DHT22;3254;47.372;8.512;2023-03-26T03:28:21;7.10;1.00
6443;DHT22;3254;47.372;8.512;2023-03-26T03:30:48;7.10;1.00
6443;DHT22;3254;47.372;8.512;2023-03-26T03:33:20;7.00;1.00
6443;DHT22;3254;47.372;8.512;2023-03-26T03:35:47;7.00;1.00
6443;DHT22;3254;47.372;8.512;2023-03-26T03:38:14;6.90;1.00
6443;DHT22;3254;47.372;8.512;2023-03-26T03:40:39;6.80;1.00
6443;DHT22;3254;47.372;8.512;2023-03-26T03:43:05;6.90;1.00
6443;DHT22;3254;47.372;8.512;2023-03-26T03:45:31;6.90;1.00
6443;DHT22;3254;47.372;8.512;2023-03-26T03:47:58;6.90;1.00
6443;DHT22;3254;47.372;8.512;2023-03-26T03:50:23;6.90;1.00
6443;DHT22;3254;47.372;8.512;2023-03-26T03:52:49;6.90;1.00
6443;DHT22;3254;47.372;8.512;2023-03-26T03:55:15;6.90;1.00
6443;DHT22;3254;47.372;8.512;2023-03-26T03:57:40;6.90;1.00
6443;DHT22;3254;47.372;8.512;2023-03-26T04:00:07;6.80;1.00
6443;DHT22;3254;47.372;8.512;2023-03-26T04:02:36;6.80;1.00
6443;DHT22;3254;47.372;8.512;2023-03-26T04:05:03;6.80;1.00
6443;DHT22;3254;47.372;8.512;2023-03-26T04:07:31;6.90;1.00
6443;DHT22;3254;47.372;8.512;2023-03-26T04:10:00;6.90;1.00
6443;DHT22;3254;47.372;8.512;2023-03-26T04:12:29;6.90;1.00
6443;DHT22;3254;47.372;8.512;2023-03-26T04:14:56;6.80;1.00
6443;DHT22;3254;47.372;8.512;2023-03-26T04:17:22;6.80;1.00
6443;DHT22;3254;47.372;8.512;2023-03-26T04:19:49;6.80;1.00
6443;DHT22;3254;47.372;8.512;2023-03-26T04:22:15;6.80;1.00
6443;DHT22;3254;47.372;8.512;2023-03-26T04:24:43;6.90;1.00
6443;DHT22;3254;47.372;8.512;2023-03-26T04:27:11;6.80;1.00
6443;DHT22;3254;47.372;8.512;2023-03-26T04:29:40;6.80;1.00
6443;DHT22;3254;47.372;8.512;2023-03-26T04:32:32;6.80;1.00
6443;DHT22;3254;47.372;8.512;2023-03-26T04:35:03;6.80;1.00
6443;DHT22;3254;47.372;8.512;2023-03-26T04:37:30;6.80;1.00
6443;DHT22;3254;47.372;8.512;2023-03-26T04:39:59;6.80;1.00
6443;DHT22;3254;47.372;8.512;2023-03-26T04:42:25;6.80;1.00
6443;DHT22;3254;47.372;8.512;2023-03-26T04:44:50;6.80;1.00
6443;DHT22;3254;47.372;8.512;2023-03-26T04:47:19;6.80;1.00
6443;DHT22;3254;47.372;8.512;2023-03-26T04:49:46;6.90;1.00
6443;DHT22;3254;47.372;8.512;2023-03-26T04:52:13;6.90;1.00
6443;DHT22;3254;47.372;8.512;2023-03-26T04:54:39;6.90;1.00
6443;DHT22;3254;47.372;8.512;2023-03-26T04:57:11;7.00;1.00
6443;DHT22;3254;47.372;8.512;2023-03-26T04:59:38;7.00;1.00
6443;DHT22;3254;47.372;8.512;2023-03-26T05:02:06;7.00;1.00
6443;DHT22;3254;47.372;8.512;2023-03-26T05:04:32;7.00;1.00
6443;DHT22;3254;47.372;8.512;2023-03-26T05:06:58;7.10;1.00
6443;DHT22;3254;47.372;8.512;2023-03-26T05:09:25;7.10;1.00
6443;DHT22;3254;47.372;8.512;2023-03-26T05:11:51;7.10;1.00
6443;DHT22;3254;47.372;8.512;2023-03-26T05:14:17;7.10;1.00
6443;DHT22;3254;47.372;8.512;2023-03-26T05:16:45;7.10;1.00
6443;DHT22;3254;47.372;8.512;2023-03-26T05:19:12;7.10;1.00
6443;DHT22;3254;47.372;8.512;2023-03-26T05:21:37;7.10;1.00
6443;DHT22;3254;47.372;8.512;2023-03-26T05:24:03;7.10;1.00
6443;DHT22;3254;47.372;8.512;2023-03-26T05:26:31;7.10;1.00
6443;DHT22;3254;47.372;8.512;2023-03-26T05:28:57;7.10;1.00
6443;DHT22;3254;47.372;8.512;2023-03-26T05:31:22;7.00;1.00
6443;DHT22;3254;47.372;8.512;2023-03-26T05:33:49;7.00;1.00
6443;DHT22;3254;47.372;8.512;2023-03-26T05:36:15;7.00;1.00
6443;DHT22;3254;47.372;8.512;2023-03-26T05:38:42;7.00;1.00
6443;DHT22;3254;47.372;8.512;2023-03-26T05:41:12;7.00;1.00
6443;DHT22;3254;47.372;8.512;2023-03-26T05:43:37;7.00;1.00
6443;DHT22;3254;47.372;8.512;2023-03-26T05:46:03;7.00;1.00
6443;DHT22;3254;47.372;8.512;2023-03-26T05:48:28;6.90;1.00
6443;DHT22;3254;47.372;8.512;2023-03-26T05:50:55;6.80;1.00
6443;DHT22;3254;47.372;8.512;2023-03-26T05:53:22;6.60;1.00
6443;DHT22;3254;47.372;8.512;2023-03-26T05:55:48;6.50;1.00
6443;DHT22;3254;47.372;8.512;2023-03-26T05:58:24;6.30;1.00
6443;DHT22;3254;47.372;8.512;2023-03-26T06:00:59;6.20;1.00
6443;DHT22;3254;47.372;8.512;2023-03-26T06:03:27;6.10;25.90
6443;DHT22;3254;47.372;8.512;2023-03-26T06:05:52;6.00;68.00
6443;DHT22;3254;47.372;8.512;2023-03-26T06:08:19;6.00;95.60
6443;DHT22;3254;47.372;8.512;2023-03-26T06:10:45;5.90;98.10
6443;DHT22;3254;47.372;8.512;2023-03-26T06:13:10;5.90;99.90
6443;DHT22;3254;47.372;8.512;2023-03-26T06:15:37;5.90;99.90
6443;DHT22;3254;47.372;8.512;2023-03-26T06:18:03;5.90;99.90
6443;DHT22;3254;47.372;8.512;2023-03-26T06:20:28;5.90;99.90
6443;DHT22;3254;47.372;8.512;2023-03-26T06:22:54;5.90;99.90
6443;DHT22;3254;47.372;8.512;2023-03-26T06:25:20;5.90;99.90
6443;DHT22;3254;47.372;8.512;2023-03-26T06:27:45;5.90;99.90
6443;DHT22;3254;47.372;8.512;2023-03-26T06:30:11;5.90;99.90
6443;DHT22;3254;47.372;8.512;2023-03-26T06:32:37;5.90;99.90
6443;DHT22;3254;47.372;8.512;2023-03-26T06:35:02;6.00;99.90
6443;DHT22;3254;47.372;8.512;2023-03-26T06:37:28;6.00;99.90
6443;DHT22;3254;47.372;8.512;2023-03-26T06:39:53;6.00;99.90
6443;DHT22;3254;47.372;8.512;2023-03-26T06:42:19;6.10;99.90
6443;DHT22;3254;47.372;8.512;2023-03-26T06:44:45;6.10;99.90
6443;DHT22;3254;47.372;8.512;2023-03-26T06:47:10;6.00;99.90
6443;DHT22;3254;47.372;8.512;2023-03-26T06:49:36;6.00;99.90
6443;DHT22;3254;47.372;8.512;2023-03-26T06:52:02;6.30;79.60
6443;DHT22;3254;47.372;8.512;2023-03-26T06:54:28;6.30;86.20
6443;DHT22;3254;47.372;8.512;2023-03-26T06:56:53;6.30;99.90
6443;DHT22;3254;47.372;8.512;2023-03-26T06:59:20;6.30;99.90
6443;DHT22;3254;47.372;8.512;2023-03-26T07:01:45;6.30;93.60
6443;DHT22;3254;47.372;8.512;2023-03-26T07:04:11;6.30;94.90
6443;DHT22;3254;47.372;8.512;2023-03-26T07:06:36;6.30;99.90
6443;DHT22;3254;47.372;8.512;2023-03-26T07:09:02;6.30;99.90
6443;DHT22;3254;47.372;8.512;2023-03-26T07:11:28;6.30;99.90
6443;DHT22;3254;47.372;8.512;2023-03-26T07:13:53;6.40;99.90
6443;DHT22;3254;47.372;8.512;2023-03-26T07:16:21;6.40;99.90
6443;DHT22;3254;47.372;8.512;2023-03-26T07:18:47;6.40;98.40
6443;DHT22;3254;47.372;8.512;2023-03-26T07:21:13;6.30;99.90
6443;DHT22;3254;47.372;8.512;2023-03-26T07:23:39;6.20;99.90
6443;DHT22;3254;47.372;8.512;2023-03-26T07:26:33;6.00;99.90
6443;DHT22;3254;47.372;8.512;2023-03-26T07:29:25;6.00;97.30
6443;DHT22;3254;47.372;8.512;2023-03-26T07:32:19;6.00;94.00
6443;DHT22;3254;47.372;8.512;2023-03-26T07:35:03;6.10;96.20
6443;DHT22;3254;47.372;8.512;2023-03-26T07:37:47;6.10;98.50
6443;DHT22;3254;47.372;8.512;2023-03-26T07:45:45;6.20;99.90
6443;DHT22;3254;47.372;8.512;2023-03-26T07:48:17;6.30;94.50
6443;DHT22;3254;47.372;8.512;2023-03-26T07:50:46;6.30;95.30
6443;DHT22;3254;47.372;8.512;2023-03-26T07:53:12;6.40;96.30
6443;DHT22;3254;47.372;8.512;2023-03-26T07:55:48;6.40;94.40
6443;DHT22;3254;47.372;8.512;2023-03-26T08:07:21;6.50;99.90
6443;DHT22;3254;47.372;8.512;2023-03-26T08:09:56;6.50;99.90
6443;DHT22;3254;47.372;8.512;2023-03-26T08:15:11;6.50;99.40
6443;DHT22;3254;47.372;8.512;2023-03-26T08:17:49;6.50;99.50
6443;DHT22;3254;47.372;8.512;2023-03-26T08:30:25;6.20;99.10
6443;DHT22;3254;47.372;8.512;2023-03-26T08:33:00;6.20;99.90
6443;DHT22;3254;47.372;8.512;2023-03-26T08:35:28;6.20;99.90
6443;DHT22;3254;47.372;8.512;2023-03-26T08:37:53;6.20;99.90
6443;DHT22;3254;47.372;8.512;2023-03-26T08:43:46;6.30;99.90
6443;DHT22;3254;47.372;8.512;2023-03-26T08:46:30;6.60;99.90
6443;DHT22;3254;47.372;8.512;2023-03-26T08:49:34;6.80;99.90
6443;DHT22;3254;47.372;8.512;2023-03-26T08:52:29;7.00;99.90
6443;DHT22;3254;47.372;8.512;2023-03-26T09:11:27;7.00;99.90
6443;DHT22;3254;47.372;8.512;2023-03-26T09:14:20;6.90;99.90
6443;DHT22;3254;47.372;8.512;2023-03-26T09:20:32;7.10;99.90
6443;DHT22;3254;47.372;8.512;2023-03-26T09:24:08;7.00;99.90
6443;DHT22;3254;47.372;8.512;2023-03-26T09:35:12;7.80;51.30
6443;DHT22;3254;47.372;8.512;2023-03-26T09:37:58;8.00;68.00
6443;DHT22;3254;47.372;8.512;2023-03-26T09:40:35;8.10;55.20
6443;DHT22;3254;47.372;8.512;2023-03-26T09:48:35;8.10;34.70
6443;DHT22;3254;47.372;8.512;2023-03-26T09:51:19;8.10;38.50
6443;DHT22;3254;47.372;8.512;2023-03-26T09:54:08;8.00;28.20
6443;DHT22;3254;47.372;8.512;2023-03-26T09:59:10;8.50;20.10
6443;DHT22;3254;47.372;8.512;2023-03-26T10:01:58;8.70;10.80
6443;DHT22;3254;47.372;8.512;2023-03-26T10:10:00;9.10;1.00
6443;DHT22;3254;47.372;8.512;2023-03-26T10:12:50;9.30;1.00
6443;DHT22;3254;47.372;8.512;2023-03-26T10:30:20;11.20;1.00
6443;DHT22;3254;47.372;8.512;2023-03-26T10:33:08;11.10;1.00
6443;DHT22;3254;47.372;8.512;2023-03-26T10:35:49;11.00;1.00
6443;DHT22;3254;47.372;8.512;2023-03-26T10:41:17;11.40;1.00
6443;DHT22;3254;47.372;8.512;2023-03-26T10:44:24;11.60;1.00
6443;DHT22;3254;47.372;8.512;2023-03-26T10:52:45;11.30;1.00
6443;DHT22;3254;47.372;8.512;2023-03-26T10:55:18;11.40;1.00
6443;DHT22;3254;47.372;8.512;2023-03-26T10:57:55;11.30;1.00
6443;DHT22;3254;47.372;8.512;2023-03-26T11:00:24;11.50;1.00
6443;DHT22;3254;47.372;8.512;2023-03-26T11:11:35;12.40;1.00
6443;DHT22;3254;47.372;8.512;2023-03-26T11:14:23;12.40;1.00
6443;DHT22;3254;47.372;8.512;2023-03-26T11:22:25;12.80;1.00
6443;DHT22;3254;47.372;8.512;2023-03-26T11:28:32;13.10;1.00
6443;DHT22;3254;47.372;8.512;2023-03-26T11:33:14;13.20;1.00
6443;DHT22;3254;47.372;8.512;2023-03-26T11:35:46;13.60;1.00
6443;DHT22;3254;47.372;8.512;2023-03-26T11:38:27;13.50;1.00
6443;DHT22;3254;47.372;8.512;2023-03-26T11:40:56;13.50;1.00
6443;DHT22;3254;47.372;8.512;2023-03-26T11:43:28;13.50;1.00
6443;DHT22;3254;47.372;8.512;2023-03-26T11:45:55;13.40;1.00
6443;DHT22;3254;47.372;8.512;2023-03-26T11:48:40;13.40;1.00
6443;DHT22;3254;47.372;8.512;2023-03-26T11:51:15;13.20;1.00
6443;DHT22;3254;47.372;8.512;2023-03-26T11:53:42;13.40;1.00
6443;DHT22;3254;47.372;8.512;2023-03-26T12:01:59;13.90;1.00
6443;DHT22;3254;47.372;8.512;2023-03-26T12:04:50;13.60;1.00
6443;DHT22;3254;47.372;8.512;2023-03-26T12:07:22;13.50;1.00
6443;DHT22;3254;47.372;8.512;2023-03-26T12:09:59;13.30;1.00
6443;DHT22;3254;47.372;8.512;2023-03-26T12:12:35;13.10;1.00
6443;DHT22;3254;47.372;8.512;2023-03-26T12:15:03;13.10;1.00
6443;DHT22;3254;47.372;8.512;2023-03-26T12:17:31;12.80;1.00
6443;DHT22;3254;47.372;8.512;2023-03-26T12:19:58;12.60;1.00
6443;DHT22;3254;47.372;8.512;2023-03-26T12:22:38;12.50;1.00
6443;DHT22;3254;47.372;8.512;2023-03-26T12:27:51;12.00;1.00
6443;DHT22;3254;47.372;8.512;2023-03-26T12:30:25;10.00;1.00
6443;DHT22;3254;47.372;8.512;2023-03-26T12:32:55;8.70;1.00
6443;DHT22;3254;47.372;8.512;2023-03-26T12:35:26;8.70;1.00
6443;DHT22;3254;47.372;8.512;2023-03-26T12:37:52;8.70;1.00
6443;DHT22;3254;47.372;8.512;2023-03-26T12:40:31;8.10;1.00
6443;DHT22;3254;47.372;8.512;2023-03-26T12:43:01;8.10;1.00
6443;DHT22;3254;47.372;8.512;2023-03-26T12:45:37;8.60;1.00
6443;DHT22;3254;47.372;8.512;2023-03-26T12:48:04;9.40;1.00
6443;DHT22;3254;47.372;8.512;2023-03-26T12:56:41;13.90;1.00
6443;DHT22;3254;47.372;8.512;2023-03-26T13:05:27;13.40;1.00
6443;DHT22;3254;47.372;8.512;2023-03-26T13:11:19;13.50;1.00
6443;DHT22;3254;47.372;8.512;2023-03-26T13:14:05;13.20;1.00
6443;DHT22;3254;47.372;8.512;2023-03-26T13:19:13;13.00;1.00
6443;DHT22;3254;47.372;8.512;2023-03-26T13:27:56;13.00;1.00
6443;DHT22;3254;47.372;8.512;2023-03-26T13:30:55;14.20;1.00
6443;DHT22;3254;47.372;8.512;2023-03-26T13:38:59;14.30;1.00
6443;DHT22;3254;47.372;8.512;2023-03-26T13:41:49;13.60;1.00
6443;DHT22;3254;47.372;8.512;2023-03-26T13:47:03;13.80;1.00
6443;DHT22;3254;47.372;8.512;2023-03-26T13:49:45;14.10;1.00
6443;DHT22;3254;47.372;8.512;2023-03-26T13:52:24;13.70;1.00
6443;DHT22;3254;47.372;8.512;2023-03-26T13:54:56;13.50;1.00
6443;DHT22;3254;47.372;8.512;2023-03-26T13:57:34;13.20;1.00
6443;DHT22;3254;47.372;8.512;2023-03-26T14:00:13;12.60;1.00
6443;DHT22;3254;47.372;8.512;2023-03-26T14:02:52;12.50;1.00
6443;DHT22;3254;47.372;8.512;2023-03-26T14:05:23;12.10;1.00
6443;DHT22;3254;47.372;8.512;2023-03-26T14:08:05;9.80;1.00
6443;DHT22;3254;47.372;8.512;2023-03-26T14:10:39;8.60;15.30
6443;DHT22;3254;47.372;8.512;2023-03-26T14:15:48;7.90;95.50
6443;DHT22;3254;47.372;8.512;2023-03-26T14:18:30;7.80;51.50
6443;DHT22;3254;47.372;8.512;2023-03-26T14:21:08;7.60;54.20
6443;DHT22;3254;47.372;8.512;2023-03-26T14:31:49;7.00;89.90
6443;DHT22;3254;47.372;8.512;2023-03-26T14:34:36;6.60;99.90
6443;DHT22;3254;47.372;8.512;2023-03-26T14:37:38;6.10;99.90
6443;DHT22;3254;47.372;8.512;2023-03-26T14:40:28;5.90;99.90
6443;DHT22;3254;47.372;8.512;2023-03-26T14:43:02;5.80;99.90
6443;DHT22;3254;47.372;8.512;2023-03-26T14:51:46;5.20;99.90
6443;DHT22;3254;47.372;8.512;2023-03-26T14:54:19;5.30;99.90
6443;DHT22;3254;47.372;8.512;2023-03-26T15:03:01;5.60;99.90
6443;DHT22;3254;47.372;8.512;2023-03-26T15:08:49;5.70;99.90
6443;DHT22;3254;47.372;8.512;2023-03-26T15:11:45;5.70;99.90
6443;DHT22;3254;47.372;8.512;2023-03-26T15:43:15;6.90;99.90
6443;DHT22;3254;47.372;8.512;2023-03-26T15:45:50;6.90;99.90
6443;DHT22;3254;47.372;8.512;2023-03-26T15:48:30;7.10;57.80
6443;DHT22;3254;47.372;8.512;2023-03-26T16:10:12;6.90;30.30
6443;DHT22;3254;47.372;8.512;2023-03-26T16:13:16;6.40;91.40
6443;DHT22;3254;47.372;8.512;2023-03-26T16:15:54;4.80;99.90
6443;DHT22;3254;47.372;8.512;2023-03-26T16:23:53;3.80;99.90
6443;DHT22;3254;47.372;8.512;2023-03-26T16:33:56;3.80;99.90
6443;DHT22;3254;47.372;8.512;2023-03-26T16:36:34;3.80;99.90
6443;DHT22;3254;47.372;8.512;2023-03-26T16:41:30;3.80;99.90
6443;DHT22;3254;47.372;8.512;2023-03-26T16:44:33;4.00;99.90
6443;DHT22;3254;47.372;8.512;2023-03-26T16:47:23;3.90;99.90
6443;DHT22;3254;47.372;8.512;2023-03-26T16:52:48;3.90;99.90
6443;DHT22;3254;47.372;8.512;2023-03-26T16:55:57;3.90;99.90
6443;DHT22;3254;47.372;8.512;2023-03-26T16:58:48;4.00;99.90
6443;DHT22;3254;47.372;8.512;2023-03-26T17:01:47;4.10;99.90
6443;DHT22;3254;47.372;8.512;2023-03-26T17:04:18;4.10;99.90
6443;DHT22;3254;47.372;8.512;2023-03-26T17:09:53;5.70;99.90
6443;DHT22;3254;47.372;8.512;2023-03-26T17:18:21;6.10;99.90
6443;DHT22;3254;47.372;8.512;2023-03-26T17:23:58;5.70;93.90
6443;DHT22;3254;47.372;8.512;2023-03-26T17:26:32;5.40;71.90
6443;DHT22;3254;47.372;8.512;2023-03-26T17:32:09;5.20;73.30
6443;DHT22;3254;47.372;8.512;2023-03-26T17:34:42;5.10;60.80
6443;DHT22;3254;47.372;8.512;2023-03-26T17:40:28;5.00;71.70
6443;DHT22;3254;47.372;8.512;2023-03-26T17:43:11;4.90;56.30
6443;DHT22;3254;47.372;8.512;2023-03-26T17:45:38;4.90;61.50
6443;DHT22;3254;47.372;8.512;2023-03-26T17:50:37;4.90;53.50
6443;DHT22;3254;47.372;8.512;2023-03-26T17:53:20;4.80;65.00
6443;DHT22;3254;47.372;8.512;2023-03-26T17:55:47;4.80;65.80
6443;DHT22;3254;47.372;8.512;2023-03-26T18:00:45;4.80;69.40
6443;DHT22;3254;47.372;8.512;2023-03-26T18:03:32;4.90;60.60
6443;DHT22;3254;47.372;8.512;2023-03-26T18:06:17;5.10;53.40
6443;DHT22;3254;47.372;8.512;2023-03-26T18:16:53;5.10;42.70
6443;DHT22;3254;47.372;8.512;2023-03-26T18:19:22;5.00;46.90
6443;DHT22;3254;47.372;8.512;2023-03-26T18:21:52;5.10;37.50
6443;DHT22;3254;47.372;8.512;2023-03-26T18:27:19;5.00;48.90
6443;DHT22;3254;47.372;8.512;2023-03-26T18:32:22;4.80;52.60
6443;DHT22;3254;47.372;8.512;2023-03-26T18:34:55;4.80;51.60
6443;DHT22;3254;47.372;8.512;2023-03-26T18:37:32;4.90;49.30
6443;DHT22;3254;47.372;8.512;2023-03-26T18:40:09;4.80;48.00
6443;DHT22;3254;47.372;8.512;2023-03-26T18:42:37;4.80;49.20
6443;DHT22;3254;47.372;8.512;2023-03-26T18:45:31;5.00;45.60
6443;DHT22;3254;47.372;8.512;2023-03-26T18:48:21;5.00;49.70
6443;DHT22;3254;47.372;8.512;2023-03-26T18:51:06;5.20;37.00
6443;DHT22;3254;47.372;8.512;2023-03-26T18:53:54;5.30;31.10
6443;DHT22;3254;47.372;8.512;2023-03-26T18:56:38;5.40;24.50
6443;DHT22;3254;47.372;8.512;2023-03-26T18:59:16;5.40;27.20
6443;DHT22;3254;47.372;8.512;2023-03-26T19:01:46;5.30;27.90
6443;DHT22;3254;47.372;8.512;2023-03-26T19:04:14;5.30;27.70
6443;DHT22;3254;47.372;8.512;2023-03-26T19:06:41;5.20;29.40
6443;DHT22;3254;47.372;8.512;2023-03-26T19:09:08;5.20;28.10
6443;DHT22;3254;47.372;8.512;2023-03-26T19:11:41;5.20;26.90
6443;DHT22;3254;47.372;8.512;2023-03-26T19:14:14;5.20;27.50
6443;DHT22;3254;47.372;8.512;2023-03-26T19:16:43;5.20;31.40
6443;DHT22;3254;47.372;8.512;2023-03-26T19:19:17;5.20;28.40
6443;DHT22;3254;47.372;8.512;2023-03-26T19:21:45;5.20;24.00
6443;DHT22;3254;47.372;8.512;2023-03-26T19:24:11;5.20;22.10
6443;DHT22;3254;47.372;8.512;2023-03-26T19:26:37;5.20;25.70
6443;DHT22;3254;47.372;8.512;2023-03-26T19:29:04;5.20;26.00
6443;DHT22;3254;47.372;8.512;2023-03-26T19:31:35;5.20;28.60
6443;DHT22;3254;47.372;8.512;2023-03-26T19:36:55;5.30;20.80
6443;DHT22;3254;47.372;8.512;2023-03-26T19:39:23;5.30;27.30
6443;DHT22;3254;47.372;8.512;2023-03-26T19:41:50;5.30;22.90
6443;DHT22;3254;47.372;8.512;2023-03-26T19:44:36;5.30;28.30
6443;DHT22;3254;47.372;8.512;2023-03-26T19:47:25;5.30;23.30
6443;DHT22;3254;47.372;8.512;2023-03-26T19:49:59;5.20;35.90
6443;DHT22;3254;47.372;8.512;2023-03-26T19:52:33;5.30;27.50
6443;DHT22;3254;47.372;8.512;2023-03-26T19:55:16;5.20;28.40
6443;DHT22;3254;47.372;8.512;2023-03-26T19:57:43;5.20;30.40
6443;DHT22;3254;47.372;8.512;2023-03-26T20:00:10;5.20;33.60
6443;DHT22;3254;47.372;8.512;2023-03-26T20:02:39;5.10;67.30
6443;DHT22;3254;47.372;8.512;2023-03-26T20:05:17;5.00;55.60
6443;DHT22;3254;47.372;8.512;2023-03-26T20:07:43;4.80;62.70
6443;DHT22;3254;47.372;8.512;2023-03-26T20:10:10;4.60;71.80
6443;DHT22;3254;47.372;8.512;2023-03-26T20:12:36;4.40;90.90
6443;DHT22;3254;47.372;8.512;2023-03-26T20:15:30;4.30;91.90
6443;DHT22;3254;47.372;8.512;2023-03-26T20:17:56;4.30;99.90
6443;DHT22;3254;47.372;8.512;2023-03-26T20:20:23;4.20;99.90
6443;DHT22;3254;47.372;8.512;2023-03-26T20:22:49;4.10;99.90
6443;DHT22;3254;47.372;8.512;2023-03-26T20:25:31;4.10;99.90
6443;DHT22;3254;47.372;8.512;2023-03-26T20:27:57;4.10;99.90
6443;DHT22;3254;47.372;8.512;2023-03-26T20:30:24;4.10;99.90
6443;DHT22;3254;47.372;8.512;2023-03-26T20:32:50;4.10;99.90
6443;DHT22;3254;47.372;8.512;2023-03-26T20:35:23;4.00;99.90
6443;DHT22;3254;47.372;8.512;2023-03-26T20:37:50;3.90;99.90
6443;DHT22;3254;47.372;8.512;2023-03-26T20:40:17;3.90;99.90
6443;DHT22;3254;47.372;8.512;2023-03-26T20:42:43;3.80;99.90
6443;DHT22;3254;47.372;8.512;2023-03-26T20:47:39;3.90;99.90
6443;DHT22;3254;47.372;8.512;2023-03-26T20:50:05;3.90;99.90
6443;DHT22;3254;47.372;8.512;2023-03-26T20:52:31;3.90;99.90
6443;DHT22;3254;47.372;8.512;2023-03-26T20:54:57;3.90;99.90
6443;DHT22;3254;47.372;8.512;2023-03-26T20:57:23;3.90;99.90
6443;DHT22;3254;47.372;8.512;2023-03-26T20:59:51;3.90;99.90
6443;DHT22;3254;47.372;8.512;2023-03-26T21:02:18;3.80;99.90
6443;DHT22;3254;47.372;8.512;2023-03-26T21:04:44;3.80;99.90
6443;DHT22;3254;47.372;8.512;2023-03-26T21:07:12;3.70;99.90
6443;DHT22;3254;47.372;8.512;2023-03-26T21:09:39;3.70;99.90
6443;DHT22;3254;47.372;8.512;2023-03-26T21:12:20;3.80;99.90
6443;DHT22;3254;47.372;8.512;2023-03-26T21:14:49;3.80;99.90
6443;DHT22;3254;47.372;8.512;2023-03-26T21:17:17;3.80;99.90
6443;DHT22;3254;47.372;8.512;2023-03-26T21:19:44;3.90;99.90
6443;DHT22;3254;47.372;8.512;2023-03-26T21:22:22;3.90;99.90
6443;DHT22;3254;47.372;8.512;2023-03-26T21:29:53;4.00;99.90
6443;DHT22;3254;47.372;8.512;2023-03-26T21:32:19;3.90;99.90
6443;DHT22;3254;47.372;8.512;2023-03-26T21:34:45;3.80;99.90
6443;DHT22;3254;47.372;8.512;2023-03-26T21:37:12;3.80;99.90
6443;DHT22;3254;47.372;8.512;2023-03-26T21:39:38;3.80;99.90
6443;DHT22;3254;47.372;8.512;2023-03-26T21:42:04;3.90;99.90
6443;DHT22;3254;47.372;8.512;2023-03-26T21:44:30;3.90;99.90
6443;DHT22;3254;47.372;8.512;2023-03-26T21:46:56;3.90;99.90
6443;DHT22;3254;47.372;8.512;2023-03-26T21:49:22;3.90;99.90
6443;DHT22;3254;47.372;8.512;2023-03-26T21:51:47;4.00;99.90
6443;DHT22;3254;47.372;8.512;2023-03-26T21:54:21;4.00;99.90
6443;DHT22;3254;47.372;8.512;2023-03-26T22:05:41;4.10;99.90
6443;DHT22;3254;47.372;8.512;2023-03-26T22:08:20;4.20;99.90
6443;DHT22;3254;47.372;8.512;2023-03-26T22:10:46;4.20;99.90
6443;DHT22;3254;47.372;8.512;2023-03-26T22:13:12;4.20;99.90
6443;DHT22;3254;47.372;8.512;2023-03-26T22:15:38;4.20;99.90